createdAt,value
2023-03-06T00:02:26.955Z,19.63
2023-03-06T00:12:29.090Z,21.87
2023-03-06T00:22:30.856Z,24.23
2023-03-06T00:32:32.808Z,17.93
2023-03-06T00:42:34.843Z,21.00
2023-03-06T00:52:36.663Z,16.10
2023-03-06T01:02:38.911Z,18.13
2023-03-06T01:12:40.670Z,19.57
2023-03-06T01:22:45.374Z,19.37
2023-03-06T01:32:47.279Z,19.47
2023-03-06T01:42:50.212Z,17.00
2023-03-06T01:52:57.829Z,22.20
2023-03-06T02:03:10.141Z,22.10
2023-03-06T02:13:11.882Z,21.37
2023-03-06T02:23:45.049Z,21.60
2023-03-06T02:33:47.972Z,18.48
2023-03-06T02:43:51.985Z,22.53
2023-03-06T02:53:53.824Z,26.27
2023-03-06T03:03:55.478Z,22.10
2023-03-06T03:13:57.176Z,23.43
2023-03-06T03:23:58.852Z,23.50
2023-03-06T03:34:00.697Z,23.67
2023-03-06T03:44:02.703Z,25.13
2023-03-06T03:54:04.432Z,27.97
2023-03-06T04:04:06.160Z,24.03
2023-03-06T04:14:07.780Z,21.40
2023-03-06T04:24:09.524Z,26.53
2023-03-06T04:34:11.149Z,22.10
2023-03-06T04:44:12.865Z,19.87
2023-03-06T04:54:15.092Z,23.73
2023-03-06T05:04:16.765Z,21.38
2023-03-06T05:14:20.627Z,23.70
2023-03-06T05:24:22.260Z,21.23
2023-03-06T05:34:23.834Z,16.60
2023-03-06T05:44:30.753Z,17.87
2023-03-06T05:54:33.788Z,18.42
2023-03-06T06:04:35.421Z,17.60
2023-03-06T06:14:37.438Z,18.10
2023-03-06T06:24:39.213Z,17.43
2023-03-06T06:34:40.989Z,18.93
2023-03-06T06:44:42.583Z,17.80
2023-03-06T06:54:44.623Z,17.83
2023-03-06T07:05:01.944Z,17.73
2023-03-06T07:15:05.743Z,20.37
2023-03-06T07:25:08.150Z,19.20
2023-03-06T07:35:20.182Z,25.17
2023-03-06T07:45:47.737Z,19.30
2023-03-06T07:56:01.405Z,17.07
2023-03-06T08:06:54.938Z,14.97
2023-03-06T08:29:08.286Z,17.05
2023-03-06T08:51:32.991Z,14.07
2023-03-06T10:56:55.700Z,11.70
2023-03-06T11:07:26.308Z,14.77
2023-03-06T11:17:42.520Z,12.20
2023-03-06T11:39:50.230Z,12.23
2023-03-06T11:50:01.879Z,10.43
2023-03-06T12:00:21.473Z,13.70
2023-03-06T12:11:29.696Z,12.73
2023-03-06T12:22:24.883Z,15.17
2023-03-06T12:33:13.576Z,11.00
2023-03-06T12:43:38.875Z,14.17
2023-03-06T12:53:49.246Z,12.40
2023-03-06T13:03:57.818Z,12.32
2023-03-06T13:14:01.352Z,10.30
2023-03-06T13:24:18.720Z,12.13
2023-03-06T13:34:36.815Z,12.20
2023-03-06T13:44:44.672Z,9.73
2023-03-06T13:55:02.846Z,10.02
2023-03-06T14:05:16.956Z,8.87
2023-03-06T14:15:28.888Z,8.93
2023-03-06T14:25:32.541Z,7.47
2023-03-06T14:35:35.438Z,7.07
2023-03-06T14:45:53.464Z,7.40
2023-03-06T14:56:00.445Z,8.23
2023-03-06T15:06:08.553Z,5.73
2023-03-06T15:16:13.560Z,7.70
2023-03-06T15:26:19.483Z,7.87
2023-03-06T15:36:29.942Z,6.20
2023-03-06T15:46:35.823Z,7.90
2023-03-06T15:56:45.141Z,7.10
2023-03-06T16:06:47.760Z,7.63
2023-03-06T16:16:55.615Z,10.20
2023-03-06T16:27:00.166Z,8.15
2023-03-06T16:37:02.340Z,6.73
2023-03-06T16:47:05.745Z,10.07
2023-03-06T16:57:11.534Z,5.57
2023-03-06T17:07:14.684Z,9.40
2023-03-06T18:14:51.034Z,8.43
2023-03-06T18:25:01.287Z,5.90
2023-03-06T18:35:09.633Z,5.00
2023-03-06T18:55:53.368Z,8.57
2023-03-06T19:05:56.412Z,11.57
2023-03-06T19:16:02.036Z,8.50
2023-03-06T19:26:18.728Z,9.43
2023-03-06T19:36:21.936Z,7.90
2023-03-06T19:46:29.077Z,8.10
2023-03-06T19:56:36.754Z,11.90
2023-03-06T20:06:40.136Z,8.47
2023-03-06T20:16:42.657Z,6.70
2023-03-06T20:26:50.085Z,12.13
2023-03-06T20:36:55.076Z,8.20
2023-03-06T20:47:09.134Z,9.90
2023-03-06T20:57:15.798Z,15.70
2023-03-06T21:07:20.678Z,16.40
2023-03-06T21:17:23.394Z,12.77
2023-03-06T21:27:25.833Z,13.07
2023-03-06T21:37:33.652Z,21.35
2023-03-06T21:47:39.892Z,12.30
2023-03-06T21:57:49.778Z,13.37
2023-03-06T22:07:55.680Z,12.53
2023-03-06T22:17:58.190Z,12.80
2023-03-06T22:28:01.051Z,12.60
2023-03-06T22:38:06.132Z,12.97
2023-03-06T22:48:11.841Z,13.17
2023-03-06T22:58:16.210Z,13.17
2023-03-06T23:08:21.945Z,13.83
2023-03-06T23:18:27.052Z,9.30
2023-03-06T23:28:32.824Z,10.53
2023-03-06T23:38:35.979Z,11.27
2023-03-06T23:48:39.734Z,9.30
2023-03-06T23:58:45.904Z,9.23
